Laurel, Iowa
Current Conditions -  °F | °C
As of 6:55 PM on Friday 24 Oct 2014 (Local Time) from KTNU Reporting Station
Haze Haze  
Wind Chill: 61°   Ceiling: 1100
Heat Index: 61°   Visibility: 6mi
Dew Point: 59°   Wind: 5mph
Humidity: 94%   Direction: 190°S
Pressure: 29.93"   Gusts: NA
Location:  41.88°N, 92.92°W
Report Text: KTNU 242355Z AUTO 19004KT 6SM BR BKN011 16/15 A2993 RMK AO2
Loading
Personal Weather Stations






























Interactive Weather Map
Tropical Storm Tracking
New forecast layout! Learn more

10-Day Weather Forecast

Advertisements
Track Severe Weather on mobile